createdAt,value
2022-10-11T00:00:37.176Z,9.22
2022-10-11T00:03:05.894Z,9.15
2022-10-11T00:05:33.515Z,9.12
2022-10-11T00:08:03.604Z,9.08
2022-10-11T00:10:29.996Z,8.97
2022-10-11T00:12:56.371Z,9.00
2022-10-11T00:15:23.219Z,8.78
2022-10-11T00:17:50.001Z,8.88
2022-10-11T00:20:18.488Z,8.82
2022-10-11T00:22:44.991Z,8.80
2022-10-11T00:25:12.283Z,8.73
2022-10-11T00:27:39.504Z,8.71
2022-10-11T00:30:07.418Z,8.63
2022-10-11T00:32:35.940Z,8.50
2022-10-11T00:35:06.310Z,8.43
2022-10-11T00:37:34.405Z,8.37
2022-10-11T00:40:01.942Z,8.32
2022-10-11T00:42:28.383Z,8.25
2022-10-11T00:45:26.852Z,8.30
2022-10-11T00:47:57.122Z,8.33
2022-10-11T00:50:24.774Z,8.25
2022-10-11T00:52:56.053Z,8.29
2022-10-11T00:55:26.376Z,8.26
2022-10-11T00:57:53.563Z,8.19
2022-10-11T01:00:20.689Z,8.18
2022-10-11T01:02:48.986Z,8.15
2022-10-11T01:05:29.200Z,8.12
2022-10-11T01:07:57.366Z,8.05
2022-10-11T01:10:23.961Z,8.03
2022-10-11T01:12:55.682Z,7.95
2022-10-11T01:15:48.208Z,7.86
2022-10-11T01:18:21.126Z,7.79
2022-10-11T01:21:05.396Z,7.91
2022-10-11T01:23:47.658Z,7.86
2022-10-11T01:26:28.873Z,7.79
2022-10-11T01:29:10.496Z,7.77
2022-10-11T01:31:56.821Z,7.79
2022-10-11T01:34:37.110Z,7.81
2022-10-11T01:37:24.080Z,7.70
2022-10-11T01:40:01.648Z,7.70
2022-10-11T01:42:29.448Z,7.60
2022-10-11T01:44:58.540Z,7.51
2022-10-11T01:47:26.308Z,7.65
2022-10-11T01:49:54.504Z,7.79
2022-10-11T01:52:21.466Z,7.64
2022-10-11T01:55:08.570Z,7.61
2022-10-11T01:58:07.770Z,7.60
2022-10-11T02:00:45.616Z,7.46
2022-10-11T02:03:19.824Z,7.67
2022-10-11T02:06:04.338Z,7.54
2022-10-11T02:08:55.994Z,7.63
2022-10-11T02:11:30.078Z,7.55
2022-10-11T02:14:01.407Z,7.44
2022-10-11T02:16:33.844Z,7.42
2022-10-11T02:19:04.837Z,7.42
2022-10-11T02:21:34.759Z,7.43
2022-10-11T02:24:09.052Z,7.46
2022-10-11T02:26:38.851Z,7.48
2022-10-11T02:29:10.548Z,7.47
2022-10-11T02:31:38.218Z,7.27
2022-10-11T02:34:22.864Z,7.22
2022-10-11T02:37:10.958Z,7.26
2022-10-11T02:39:41.441Z,7.33
2022-10-11T02:42:14.562Z,7.20
2022-10-11T02:45:02.849Z,7.10
2022-10-11T02:47:31.747Z,7.13
2022-10-11T02:50:01.465Z,7.12
2022-10-11T02:52:28.118Z,7.06
2022-10-11T02:54:54.553Z,7.06
2022-10-11T02:57:21.174Z,7.10
2022-10-11T02:59:47.925Z,7.03
2022-10-11T03:02:14.461Z,7.05
2022-10-11T03:04:40.963Z,7.02
2022-10-11T03:07:07.370Z,7.00
2022-10-11T03:09:33.770Z,6.92
2022-10-11T03:12:00.162Z,6.82
2022-10-11T03:14:26.729Z,6.84
2022-10-11T03:16:53.242Z,6.76
2022-10-11T03:19:19.698Z,6.75
2022-10-11T03:21:46.679Z,6.67
2022-10-11T03:24:13.240Z,6.79
2022-10-11T03:26:39.796Z,6.75
2022-10-11T03:29:06.573Z,6.75
2022-10-11T03:31:33.349Z,6.63
2022-10-11T03:33:59.782Z,6.58
2022-10-11T03:36:26.164Z,6.72
2022-10-11T03:38:52.533Z,6.68
2022-10-11T03:41:18.944Z,6.64
2022-10-11T03:43:45.382Z,6.60
2022-10-11T03:46:12.035Z,6.60
2022-10-11T03:48:38.418Z,6.56
2022-10-11T03:51:04.945Z,6.48
2022-10-11T03:53:31.745Z,6.44
2022-10-11T03:55:58.150Z,6.38
2022-10-11T03:58:24.553Z,6.38
2022-10-11T04:00:53.749Z,6.51
2022-10-11T04:03:20.227Z,6.71
2022-10-11T04:05:46.913Z,6.96
2022-10-11T04:08:13.398Z,7.10
2022-10-11T04:10:40.382Z,7.23
2022-10-11T04:13:07.495Z,7.58
2022-10-11T04:15:34.942Z,7.60
2022-10-11T04:18:01.796Z,7.95
2022-10-11T04:20:28.257Z,8.06
2022-10-11T04:22:54.620Z,8.12
2022-10-11T04:25:21.052Z,8.19
2022-10-11T04:27:48.573Z,8.23
2022-10-11T04:30:16.908Z,8.52
2022-10-11T04:32:45.180Z,8.40
2022-10-11T04:35:11.871Z,8.63
2022-10-11T04:37:38.293Z,8.64
2022-10-11T04:40:07.260Z,8.89
2022-10-11T04:42:34.107Z,8.80
2022-10-11T04:45:00.488Z,8.97
2022-10-11T04:47:27.074Z,9.01
2022-10-11T04:49:53.455Z,8.92
2022-10-11T04:52:24.702Z,8.85
2022-10-11T04:54:52.039Z,8.68
2022-10-11T04:57:18.530Z,8.57
2022-10-11T04:59:49.906Z,8.44
2022-10-11T05:02:17.377Z,8.43
2022-10-11T05:04:44.006Z,8.43
2022-10-11T05:07:10.938Z,8.43
2022-10-11T05:09:37.329Z,8.23
2022-10-11T05:12:04.094Z,8.22
2022-10-11T05:14:30.458Z,8.15
2022-10-11T05:16:56.906Z,8.06
2022-10-11T05:19:23.551Z,8.09
2022-10-11T05:21:51.155Z,8.10
2022-10-11T05:24:17.866Z,8.05
2022-10-11T05:26:44.284Z,8.09
2022-10-11T05:29:10.662Z,8.22
2022-10-11T05:31:37.076Z,8.15
2022-10-11T05:34:03.534Z,8.28
2022-10-11T05:36:30.028Z,8.26
2022-10-11T05:38:56.438Z,8.25
2022-10-11T05:41:22.844Z,8.16
2022-10-11T05:43:50.609Z,8.36
2022-10-11T05:46:17.173Z,8.65
2022-10-11T05:48:43.649Z,8.54
2022-10-11T05:51:12.002Z,8.49
2022-10-11T05:53:39.209Z,8.09
2022-10-11T05:56:16.883Z,7.81
2022-10-11T05:58:43.429Z,7.61
2022-10-11T06:01:17.531Z,7.77
2022-10-11T06:03:43.914Z,8.12
2022-10-11T06:06:10.727Z,8.07
2022-10-11T06:08:37.508Z,8.05
2022-10-11T06:11:22.130Z,7.86
2022-10-11T06:13:49.004Z,7.78
2022-10-11T06:16:16.286Z,7.91
2022-10-11T06:18:43.148Z,7.99
2022-10-11T06:21:10.062Z,8.05
2022-10-11T06:23:36.603Z,7.89
2022-10-11T06:26:07.358Z,7.82
2022-10-11T06:28:38.930Z,7.99
2022-10-11T06:32:49.771Z,8.30
2022-10-11T06:35:16.950Z,8.40
2022-10-11T06:37:43.410Z,8.26
2022-10-11T06:40:10.261Z,8.36
2022-10-11T06:42:36.643Z,8.67
2022-10-11T06:45:03.322Z,8.67
2022-10-11T06:47:29.740Z,8.71
2022-10-11T06:49:56.655Z,8.82
2022-10-11T06:52:23.066Z,8.77
2022-10-11T06:54:49.482Z,8.64
2022-10-11T06:57:16.206Z,8.73
2022-10-11T06:59:42.576Z,8.88
2022-10-11T07:02:10.200Z,8.78
2022-10-11T07:04:36.592Z,8.82
2022-10-11T07:07:03.090Z,9.08
2022-10-11T07:09:30.991Z,8.85
2022-10-11T07:11:57.524Z,8.94
2022-10-11T07:14:23.878Z,8.98
2022-10-11T07:16:50.215Z,8.85
2022-10-11T07:19:17.092Z,8.71
2022-10-11T07:21:43.527Z,8.85
2022-10-11T07:24:10.027Z,8.81
2022-10-11T07:26:38.650Z,8.91
2022-10-11T07:29:08.021Z,8.84
2022-10-11T07:31:36.857Z,8.74
2022-10-11T07:34:03.464Z,8.63
2022-10-11T07:36:30.225Z,8.67
2022-10-11T07:38:56.596Z,8.75
2022-10-11T07:41:23.008Z,8.85
2022-10-11T07:43:49.784Z,8.46
2022-10-11T07:46:17.644Z,8.37
2022-10-11T07:48:44.037Z,8.30
2022-10-11T07:51:12.592Z,8.43
2022-10-11T07:53:46.690Z,8.13
2022-10-11T07:56:15.260Z,8.18
2022-10-11T07:58:42.665Z,8.32
2022-10-11T08:01:10.709Z,8.52
2022-10-11T08:03:38.288Z,8.40
2022-10-11T08:06:07.491Z,8.71
2022-10-11T08:08:34.297Z,8.89
2022-10-11T08:11:01.051Z,9.00
2022-10-11T08:13:27.539Z,8.88
2022-10-11T08:15:54.105Z,8.80
2022-10-11T08:18:20.946Z,8.78
2022-10-11T08:20:47.515Z,8.59
2022-10-11T08:23:15.462Z,8.37
2022-10-11T08:25:45.582Z,8.60
2022-10-11T08:28:20.277Z,8.34
2022-10-11T08:30:51.086Z,8.36
2022-10-11T08:33:19.089Z,8.50
2022-10-11T08:35:45.895Z,8.49
2022-10-11T08:38:12.966Z,8.61
2022-10-11T08:40:49.440Z,8.75
2022-10-11T08:43:25.692Z,8.85
2022-10-11T08:45:55.522Z,8.94
2022-10-11T08:48:29.829Z,8.53
2022-10-11T08:50:57.401Z,8.64
2022-10-11T08:53:33.065Z,8.77
2022-10-11T08:56:01.239Z,8.75
2022-10-11T08:58:40.383Z,8.73
2022-10-11T09:01:18.325Z,8.84
2022-10-11T09:03:47.396Z,9.14
2022-10-11T09:06:22.993Z,8.92
2022-10-11T09:09:16.871Z,9.21
2022-10-11T09:12:24.668Z,8.94
2022-10-11T09:15:11.328Z,9.12
2022-10-11T09:17:56.630Z,9.22
2022-10-11T09:20:57.365Z,9.42
2022-10-11T09:23:32.858Z,9.77
2022-10-11T09:26:10.252Z,10.20
2022-10-11T09:28:43.351Z,10.25
2022-10-11T09:31:11.255Z,10.35
2022-10-11T09:33:43.133Z,10.53
2022-10-11T09:36:22.574Z,10.81
2022-10-11T09:39:18.399Z,11.44
2022-10-11T09:42:05.533Z,11.28
2022-10-11T09:44:41.285Z,10.94
2022-10-11T09:47:14.375Z,10.25
2022-10-11T09:49:46.293Z,10.31
2022-10-11T09:52:19.419Z,10.33
2022-10-11T09:54:48.884Z,10.58
2022-10-11T09:57:31.274Z,10.89
2022-10-11T10:00:01.950Z,11.31
2022-10-11T10:02:30.092Z,11.90
2022-10-11T10:05:10.414Z,11.72
2022-10-11T10:07:56.497Z,11.54
2022-10-11T10:10:32.219Z,11.20
2022-10-11T10:13:01.319Z,10.56
2022-10-11T10:15:34.645Z,10.87
2022-10-11T10:18:03.043Z,11.54
2022-10-11T10:20:35.575Z,11.86
2022-10-11T10:23:19.183Z,12.10
2022-10-11T10:25:50.880Z,11.92
2022-10-11T10:28:24.324Z,12.64
2022-10-11T10:30:58.931Z,12.43
2022-10-11T10:33:29.858Z,13.30
2022-10-11T10:36:12.489Z,12.40
2022-10-11T10:38:52.006Z,12.33
2022-10-11T10:41:19.524Z,12.60
2022-10-11T10:43:53.719Z,12.40
2022-10-11T10:46:39.208Z,12.44
2022-10-11T10:49:55.568Z,12.74
2022-10-11T10:52:46.943Z,12.88
2022-10-11T10:55:44.492Z,12.79
2022-10-11T10:58:18.661Z,13.11
2022-10-11T11:00:51.600Z,13.50
2022-10-11T11:03:33.249Z,14.15
2022-10-11T11:06:04.489Z,14.91
2022-10-11T11:08:52.810Z,16.09
2022-10-11T11:11:34.152Z,17.02
2022-10-11T11:14:15.622Z,17.58
2022-10-11T11:16:49.738Z,18.16
2022-10-11T11:19:34.036Z,17.59
2022-10-11T11:22:06.212Z,17.62
2022-10-11T11:24:45.516Z,17.30
2022-10-11T11:27:39.847Z,17.50
2022-10-11T11:30:19.839Z,18.85
2022-10-11T11:33:09.945Z,19.64
2022-10-11T11:35:42.415Z,20.45
2022-10-11T11:38:49.831Z,20.79
2022-10-11T11:41:22.126Z,20.53
2022-10-11T11:44:02.928Z,20.65
2022-10-11T11:46:34.376Z,20.97
2022-10-11T11:49:13.046Z,20.25
2022-10-11T11:51:44.025Z,20.65
2022-10-11T11:54:32.566Z,21.02
2022-10-11T11:57:22.139Z,21.30
2022-10-11T12:00:00.312Z,22.06
2022-10-11T12:03:03.562Z,21.06
2022-10-11T12:05:33.844Z,21.35
2022-10-11T12:08:24.081Z,21.89
2022-10-11T12:10:50.448Z,21.95
2022-10-11T12:13:32.186Z,21.92
2022-10-11T12:16:12.868Z,21.75
2022-10-11T12:18:49.761Z,20.76
2022-10-11T12:21:31.963Z,19.29
2022-10-11T12:24:09.062Z,19.83
2022-10-11T12:27:03.334Z,20.63
2022-10-11T12:29:47.047Z,20.61
2022-10-11T12:32:28.593Z,20.24
2022-10-11T12:35:30.623Z,20.72
2022-10-11T12:38:17.265Z,19.15
2022-10-11T12:40:47.106Z,18.17
2022-10-11T12:43:16.721Z,17.37
2022-10-11T12:45:48.054Z,16.85
2022-10-11T12:48:34.074Z,16.79
2022-10-11T12:51:15.396Z,17.41
2022-10-11T12:54:27.437Z,17.98
2022-10-11T12:57:23.019Z,17.50
2022-10-11T12:59:49.742Z,17.65
2022-10-11T13:02:37.955Z,18.27
2022-10-11T13:05:24.589Z,18.57
2022-10-11T13:07:54.343Z,19.29
2022-10-11T13:10:39.168Z,19.88
2022-10-11T13:13:18.578Z,19.45
2022-10-11T13:15:46.032Z,20.25
2022-10-11T13:18:14.516Z,20.32
2022-10-11T13:20:42.486Z,19.74
2022-10-11T13:23:37.689Z,19.69
2022-10-11T13:26:04.216Z,19.88
2022-10-11T13:28:36.338Z,21.00
2022-10-11T13:31:04.177Z,20.92
2022-10-11T13:33:34.770Z,21.14
2022-10-11T13:36:03.807Z,21.81
2022-10-11T13:38:36.374Z,20.94
2022-10-11T13:41:06.001Z,20.84
2022-10-11T13:43:36.202Z,21.50
2022-10-11T13:46:05.022Z,21.65
2022-10-11T13:48:38.718Z,21.07
2022-10-11T13:51:37.662Z,20.10
2022-10-11T13:54:10.411Z,20.08
2022-10-11T13:56:46.137Z,20.31
2022-10-11T13:59:24.045Z,20.69
2022-10-11T14:01:57.440Z,20.07
2022-10-11T14:04:29.373Z,19.14
2022-10-11T14:07:02.463Z,19.71
2022-10-11T14:09:32.346Z,20.38
2022-10-11T14:12:39.589Z,20.53
2022-10-11T14:15:23.962Z,20.72
2022-10-11T14:17:51.272Z,21.06
2022-10-11T14:20:23.203Z,21.26
2022-10-11T14:22:53.986Z,21.31
2022-10-11T14:25:21.818Z,21.38
2022-10-11T14:27:49.081Z,21.51
2022-10-11T14:30:27.452Z,21.47
2022-10-11T14:32:56.958Z,21.30
2022-10-11T14:35:26.977Z,21.30
2022-10-11T14:37:54.075Z,21.55
2022-10-11T14:40:26.240Z,20.87
2022-10-11T14:42:53.217Z,21.10
2022-10-11T14:45:21.499Z,21.16
2022-10-11T14:47:48.963Z,20.93
2022-10-11T14:50:31.959Z,20.01
2022-10-11T14:52:58.631Z,20.01
2022-10-11T14:55:25.716Z,20.38
2022-10-11T14:57:52.149Z,20.49
2022-10-11T15:00:24.677Z,20.71
2022-10-11T15:02:52.686Z,20.55
2022-10-11T15:05:20.099Z,19.39
2022-10-11T15:07:48.352Z,19.53
2022-10-11T15:10:21.707Z,19.52
2022-10-11T15:12:52.546Z,20.08
2022-10-11T15:15:22.585Z,19.77
2022-10-11T15:17:54.553Z,19.95
2022-10-11T15:20:27.775Z,20.25
2022-10-11T15:22:56.202Z,20.34
2022-10-11T15:25:23.307Z,19.94
2022-10-11T15:27:51.582Z,19.59
2022-10-11T15:30:21.314Z,19.29
2022-10-11T15:32:48.663Z,19.26
2022-10-11T15:35:15.961Z,19.28
2022-10-11T15:37:42.797Z,18.20
2022-10-11T15:40:20.612Z,17.94
2022-10-11T15:42:50.482Z,18.60
2022-10-11T15:45:19.402Z,18.64
2022-10-11T15:47:46.655Z,18.39
2022-10-11T15:50:24.263Z,18.53
2022-10-11T15:52:51.709Z,18.53
2022-10-11T15:55:18.452Z,18.51
2022-10-11T15:57:44.898Z,18.34
2022-10-11T16:00:13.136Z,18.46
2022-10-11T16:02:39.841Z,18.34
2022-10-11T16:05:06.416Z,18.09
2022-10-11T16:07:33.959Z,17.86
2022-10-11T16:10:00.359Z,17.47
2022-10-11T16:12:26.865Z,16.90
2022-10-11T16:14:53.285Z,16.68
2022-10-11T16:17:19.650Z,16.52
2022-10-11T16:19:46.261Z,16.41
2022-10-11T16:22:13.638Z,16.24
2022-10-11T16:24:40.086Z,15.87
2022-10-11T16:27:06.516Z,15.42
2022-10-11T16:29:35.430Z,15.11
2022-10-11T16:32:03.246Z,14.95
2022-10-11T16:34:29.651Z,14.79
2022-10-11T16:36:56.149Z,14.74
2022-10-11T16:39:23.853Z,14.60
2022-10-11T16:41:50.446Z,14.55
2022-10-11T16:44:19.886Z,14.46
2022-10-11T16:46:48.382Z,14.42
2022-10-11T16:49:22.497Z,14.25
2022-10-11T16:51:50.801Z,14.21
2022-10-11T16:54:20.405Z,13.98
2022-10-11T16:56:48.856Z,13.95
2022-10-11T16:59:15.332Z,13.83
2022-10-11T17:01:41.868Z,13.65
2022-10-11T17:04:09.308Z,13.61
2022-10-11T17:06:35.933Z,13.46
2022-10-11T17:09:04.245Z,13.46
2022-10-11T17:11:30.626Z,13.15
2022-10-11T17:14:00.112Z,12.98
2022-10-11T17:16:27.130Z,12.81
2022-10-11T17:18:53.805Z,12.84
2022-10-11T17:21:23.547Z,12.67
2022-10-11T17:23:50.451Z,12.65
2022-10-11T17:26:21.497Z,12.57
2022-10-11T17:28:48.378Z,12.33
2022-10-11T17:31:15.030Z,12.30
2022-10-11T17:33:41.552Z,12.12
2022-10-11T17:36:23.555Z,12.00
2022-10-11T17:38:51.351Z,11.88
2022-10-11T17:41:18.471Z,11.85
2022-10-11T17:43:45.165Z,11.68
2022-10-11T17:46:13.619Z,11.62
2022-10-11T17:48:40.548Z,11.69
2022-10-11T17:51:18.534Z,11.49
2022-10-11T17:53:50.445Z,11.35
2022-10-11T17:57:36.450Z,11.26
2022-10-11T18:00:05.244Z,11.27
2022-10-11T18:02:32.130Z,11.24
2022-10-11T18:04:58.499Z,11.13
2022-10-11T18:07:25.083Z,10.87
2022-10-11T18:09:51.468Z,10.96
2022-10-11T18:12:17.968Z,10.79
2022-10-11T18:14:44.451Z,10.84
2022-10-11T18:17:10.915Z,10.62
2022-10-11T18:19:37.551Z,10.60
2022-10-11T18:22:07.045Z,10.63
2022-10-11T18:24:34.009Z,10.41
2022-10-11T18:27:00.434Z,10.41
2022-10-11T18:29:26.976Z,10.32
2022-10-11T18:31:53.442Z,10.25
2022-10-11T18:34:19.874Z,10.21
2022-10-11T18:36:46.373Z,10.31
2022-10-11T18:39:15.002Z,10.26
2022-10-11T18:41:44.305Z,10.45
2022-10-11T18:44:14.065Z,10.12
2022-10-11T18:46:41.110Z,10.20
2022-10-11T18:49:08.200Z,10.22
2022-10-11T18:51:37.563Z,10.24
2022-10-11T18:54:05.374Z,10.11
2022-10-11T18:56:34.468Z,9.87
2022-10-11T18:59:01.228Z,9.81
2022-10-11T19:01:34.163Z,9.86
2022-10-11T19:04:03.356Z,9.77
2022-10-11T19:06:36.583Z,9.67
2022-10-11T19:09:10.262Z,9.69
2022-10-11T19:11:37.767Z,9.56
2022-10-11T19:14:07.866Z,9.56
2022-10-11T19:16:39.611Z,9.53
2022-10-11T19:19:06.910Z,9.50
2022-10-11T19:21:33.545Z,9.35
2022-10-11T19:24:00.130Z,9.23
2022-10-11T19:26:38.402Z,9.29
2022-10-11T19:29:19.794Z,9.33
2022-10-11T19:31:55.272Z,9.31
2022-10-11T19:34:22.764Z,9.31
2022-10-11T19:36:53.577Z,9.16
2022-10-11T19:39:22.075Z,9.16
2022-10-11T19:41:51.098Z,9.35
2022-10-11T19:44:17.974Z,9.21
2022-10-11T19:46:52.971Z,9.11
2022-10-11T19:49:23.449Z,9.10
2022-10-11T19:51:50.695Z,9.14
2022-10-11T19:54:17.792Z,9.04
2022-10-11T19:56:44.641Z,9.02
2022-10-11T19:59:12.325Z,9.05
2022-10-11T20:01:39.938Z,8.97
2022-10-11T20:04:08.686Z,8.94
2022-10-11T20:06:39.014Z,9.00
2022-10-11T20:09:28.965Z,9.01
2022-10-11T20:11:56.316Z,8.95
2022-10-11T20:14:24.878Z,8.97
2022-10-11T20:16:51.520Z,9.02
2022-10-11T20:19:18.514Z,8.74
2022-10-11T20:21:45.339Z,8.63
2022-10-11T20:24:12.505Z,8.60
2022-10-11T20:26:39.296Z,8.60
2022-10-11T20:29:06.160Z,8.73
2022-10-11T20:31:34.601Z,8.50
2022-10-11T20:34:04.868Z,8.59
2022-10-11T20:36:35.078Z,8.68
2022-10-11T20:39:02.158Z,8.61
2022-10-11T20:41:31.920Z,8.50
2022-10-11T20:44:00.340Z,8.47
2022-10-11T20:46:35.564Z,8.56
2022-10-11T20:49:07.828Z,8.53
2022-10-11T20:51:36.964Z,8.47
2022-10-11T20:54:04.878Z,8.47
2022-10-11T20:56:32.333Z,8.33
2022-10-11T20:58:58.758Z,8.36
2022-10-11T21:01:36.406Z,8.16
2022-10-11T21:04:03.617Z,8.28
2022-10-11T21:06:35.888Z,8.26
2022-10-11T21:09:02.544Z,8.25
2022-10-11T21:11:33.628Z,8.23
2022-10-11T21:14:03.162Z,8.22
2022-10-11T21:16:29.931Z,8.05
2022-10-11T21:18:58.486Z,8.09
2022-10-11T21:21:26.169Z,8.10
2022-10-11T21:24:00.145Z,7.99
2022-10-11T21:26:28.795Z,8.03
2022-10-11T21:28:57.824Z,7.92
2022-10-11T21:31:32.725Z,7.95
2022-10-11T21:34:02.945Z,7.86
2022-10-11T21:36:31.641Z,8.09
2022-10-11T21:39:06.261Z,8.03
2022-10-11T21:41:35.743Z,7.89
2022-10-11T21:44:02.809Z,7.81
2022-10-11T21:49:21.061Z,7.53
2022-10-11T21:51:50.825Z,7.54
2022-10-11T21:54:18.500Z,7.57
2022-10-11T21:56:44.872Z,7.57
2022-10-11T21:59:12.605Z,7.61
2022-10-11T22:01:40.220Z,7.55
2022-10-11T22:04:09.965Z,7.61
2022-10-11T22:06:37.486Z,7.48
2022-10-11T22:09:05.369Z,7.46
2022-10-11T22:11:32.153Z,7.55
2022-10-11T22:13:58.785Z,7.34
2022-10-11T22:16:25.208Z,7.35
2022-10-11T22:18:53.501Z,7.46
2022-10-11T22:21:22.507Z,7.37
2022-10-11T22:23:51.197Z,7.22
2022-10-11T22:26:20.417Z,7.20
2022-10-11T22:28:47.669Z,7.19
2022-10-11T22:31:16.743Z,7.13
2022-10-11T22:36:19.191Z,6.99
2022-10-11T22:38:46.545Z,7.00
2022-10-11T22:41:13.566Z,6.93
2022-10-11T22:43:40.307Z,6.89
2022-10-11T22:46:07.268Z,6.88
2022-10-11T22:48:33.930Z,6.88
2022-10-11T22:51:01.075Z,6.89
2022-10-11T22:53:27.668Z,6.89
2022-10-11T22:55:54.060Z,6.92
2022-10-11T22:58:20.531Z,6.86
2022-10-11T23:00:47.062Z,6.82
2022-10-11T23:03:18.380Z,6.79
2022-10-11T23:05:55.599Z,6.76
2022-10-11T23:08:22.532Z,6.79
2022-10-11T23:10:49.077Z,6.92
2022-10-11T23:13:15.736Z,6.82
2022-10-11T23:15:42.565Z,6.84
2022-10-11T23:18:09.285Z,6.76
2022-10-11T23:20:38.290Z,6.86
2022-10-11T23:23:04.898Z,6.95
2022-10-11T23:25:33.671Z,6.96
2022-10-11T23:28:01.208Z,6.85
2022-10-11T23:30:29.296Z,6.85
2022-10-11T23:32:55.778Z,6.86
2022-10-11T23:35:22.469Z,6.74
2022-10-11T23:37:49.011Z,6.65
2022-10-11T23:40:15.605Z,6.52
2022-10-11T23:42:42.053Z,6.55
2022-10-11T23:45:09.016Z,6.63
2022-10-11T23:47:35.652Z,6.49
2022-10-11T23:50:02.329Z,6.44
2022-10-11T23:52:28.705Z,6.45
2022-10-11T23:54:56.190Z,6.37
